Time;durP1;ratioP1;P1;durP2;ratioP2;P2;SDS_P1;SDS_P2;PMS_P1;PMS_P2;Temp;Humidity;BMP_temperature;BMP_pressure;BME280_temperature;BME280_humidity;BME280_pressure;Samples;Min_cycle;Max_cycle;Signal;HPM_P1;HPM_P2
2022/02/22 00:00:49;;;;;;;20.65;5.15;;;4.70;91.60;;;;;;5069425;28;20038;-82
2022/02/22 00:03:15;;;;;;;36.63;5.18;;;4.70;91.50;;;;;;5068030;28;20028;-82
2022/02/22 00:05:40;;;;;;;33.30;4.35;;;4.70;91.20;;;;;;5067167;28;20044;-82
2022/02/22 00:08:06;;;;;;;35.42;4.82;;;4.70;91.10;;;;;;5067697;28;20035;-82
2022/02/22 00:10:31;;;;;;;37.60;5.25;;;4.70;90.00;;;;;;5070537;28;20041;-82
2022/02/22 00:12:57;;;;;;;23.88;3.63;;;4.80;89.50;;;;;;5066792;28;20120;-82
2022/02/22 00:15:22;;;;;;;36.15;4.70;;;4.70;89.20;;;;;;5068811;28;20032;-82
2022/02/22 00:17:48;;;;;;;25.65;4.15;;;4.60;89.20;;;;;;5069417;28;20032;-81
2022/02/22 00:20:16;;;;;;;24.63;4.47;;;4.60;88.80;;;;;;5052153;28;20025;-81
2022/02/22 00:22:41;;;;;;;29.60;4.63;;;4.60;87.90;;;;;;5060344;28;20037;-81
2022/02/22 00:25:12;;;;;;;30.60;5.32;;;4.60;87.90;;;;;;5066736;28;20418;-81
2022/02/22 00:27:47;;;;;;;;;;;4.60;88.30;;;;;;5076607;28;20059;-82
2022/02/22 00:30:14;;;;;;;32.63;4.85;;;4.50;88.90;;;;;;5065273;28;19966;-82
2022/02/22 00:32:40;;;;;;;23.60;3.80;;;4.50;89.20;;;;;;5069682;28;20435;-82
2022/02/22 00:35:11;;;;;;;21.40;3.15;;;4.50;89.60;;;;;;5066965;28;20016;-81
2022/02/22 00:37:37;;;;;;;24.58;4.72;;;4.50;89.70;;;;;;5069516;28;20021;-82
2022/02/22 00:40:04;;;;;;;31.00;4.97;;;4.40;89.70;;;;;;5068530;28;20039;-82
2022/02/22 00:42:30;;;;;;;33.47;5.07;;;4.40;89.30;;;;;;5070228;28;20032;-82
2022/02/22 00:44:55;;;;;;;29.65;4.78;;;4.30;89.50;;;;;;5070198;28;20093;-82
2022/02/22 00:47:21;;;;;;;12.02;3.67;;;4.40;88.70;;;;;;5067119;28;20544;-81
2022/02/22 00:49:47;;;;;;;33.13;4.25;;;4.50;87.60;;;;;;5061514;28;20538;-82
2022/02/22 00:52:13;;;;;;;24.45;4.30;;;4.30;87.80;;;;;;5065511;28;20063;-82
2022/02/22 00:54:38;;;;;;;26.60;4.18;;;4.50;86.40;;;;;;5066836;28;20028;-81
2022/02/22 00:57:04;;;;;;;18.45;3.42;;;4.40;86.60;;;;;;5068986;28;20036;-81
2022/02/22 00:59:29;;;;;;;26.13;4.43;;;4.50;85.40;;;;;;5069509;28;20035;-81
2022/02/22 01:01:55;;;;;;;24.58;3.88;;;4.40;86.10;;;;;;5066200;28;20412;-82
2022/02/22 01:04:20;;;;;;;18.30;3.60;;;4.40;86.20;;;;;;5072746;28;20050;-82
2022/02/22 01:06:46;;;;;;;24.80;4.65;;;4.30;86.40;;;;;;5065293;28;20125;-82
2022/02/22 01:09:13;;;;;;;30.73;4.72;;;4.40;86.80;;;;;;5077807;28;20123;-81
2022/02/22 01:11:41;;;;;;;17.98;3.88;;;4.40;87.40;;;;;;5069616;28;20021;-81
2022/02/22 01:14:06;;;;;;;28.27;4.40;;;4.40;87.30;;;;;;5069326;28;20020;-81
2022/02/22 01:16:32;;;;;;;29.77;4.28;;;4.40;87.50;;;;;;5063187;28;20031;-82
2022/02/22 01:18:58;;;;;;;21.15;3.80;;;4.50;87.30;;;;;;5061045;28;20438;-82
2022/02/22 01:21:23;;;;;;;28.23;4.57;;;4.50;87.20;;;;;;5072633;28;20082;-81
2022/02/22 01:23:49;;;;;;;23.15;3.70;;;4.40;87.70;;;;;;5071665;28;20078;-82
2022/02/22 01:26:15;;;;;;;23.00;4.45;;;4.30;87.50;;;;;;5067759;28;20028;-82
2022/02/22 01:28:40;;;;;;;25.50;4.68;;;4.30;87.70;;;;;;5071179;28;20068;-82
2022/02/22 01:31:06;;;;;;;27.52;4.47;;;4.40;86.70;;;;;;5072028;28;20078;-81
2022/02/22 01:33:31;;;;;;;24.25;4.43;;;4.20;87.40;;;;;;5066576;28;20035;-82
2022/02/22 01:35:57;;;;;;;15.35;3.65;;;4.20;87.30;;;;;;5070222;28;20052;-82
2022/02/22 01:38:23;;;;;;;20.65;4.05;;;4.10;87.70;;;;;;5072118;28;20044;-82
2022/02/22 01:40:52;;;;;;;25.17;4.25;;;4.10;87.60;;;;;;5068183;28;20032;-82
2022/02/22 01:43:18;;;;;;;23.27;4.20;;;4.20;87.20;;;;;;5073395;28;20040;-82
2022/02/22 01:45:46;;;;;;;18.73;3.30;;;4.40;86.00;;;;;;5086379;28;20037;-82
2022/02/22 01:48:11;;;;;;;24.98;4.10;;;4.40;85.40;;;;;;5069074;28;20062;-82
2022/02/22 01:50:37;;;;;;;28.10;4.25;;;4.40;85.90;;;;;;5071270;28;20036;-81
2022/02/22 01:53:03;;;;;;;24.58;4.20;;;4.50;86.20;;;;;;5072592;28;20388;-82
2022/02/22 01:55:29;;;;;;;25.30;4.53;;;4.50;86.80;;;;;;5071307;28;20118;-82
2022/02/22 01:57:55;;;;;;;23.67;3.67;;;4.50;86.60;;;;;;5078930;28;20051;-81
2022/02/22 02:00:20;;;;;;;21.20;3.83;;;4.60;86.50;;;;;;5071292;28;20107;-82
2022/02/22 02:02:48;;;;;;;19.90;4.07;;;4.50;86.50;;;;;;5071870;28;20031;-81
2022/02/22 02:05:14;;;;;;;26.00;4.40;;;4.50;86.50;;;;;;5069937;28;20403;-81
2022/02/22 02:07:39;;;;;;;24.08;4.15;;;4.40;86.70;;;;;;5073583;28;20115;-81
2022/02/22 02:10:05;;;;;;;21.45;4.03;;;4.40;87.10;;;;;;5073159;28;20051;-81
2022/02/22 02:12:38;;;;;;;23.55;4.15;;;4.40;86.30;;;;;;5073776;28;20033;-81
2022/02/22 02:15:05;;;;;;;30.55;4.15;;;4.50;85.30;;;;;;5072036;28;20020;-81
2022/02/22 02:17:34;;;;;;;24.38;4.07;;;4.40;84.70;;;;;;5071120;28;20110;-81
2022/02/22 02:20:04;;;;;;;21.17;3.00;;;4.40;84.70;;;;;;5069631;28;20056;-82
2022/02/22 02:22:29;;;;;;;28.02;4.40;;;4.50;84.30;;;;;;5067908;28;20055;-81
2022/02/22 02:24:55;;;;;;;30.05;4.97;;;4.40;84.30;;;;;;5080532;28;20544;-81
2022/02/22 02:27:21;;;;;;;24.20;4.80;;;4.40;84.40;;;;;;5074698;28;20054;-82
2022/02/22 02:29:46;;;;;;;16.88;3.17;;;4.30;85.00;;;;;;5075508;28;20025;-81
2022/02/22 02:32:12;;;;;;;21.05;4.55;;;4.30;84.60;;;;;;5069624;28;20017;-82
2022/02/22 02:34:37;;;;;;;17.00;4.38;;;4.30;84.50;;;;;;5062422;28;20021;-81
2022/02/22 02:37:03;;;;;;;25.38;3.78;;;4.30;84.90;;;;;;5072085;28;20052;-81
2022/02/22 02:39:28;;;;;;;33.22;4.75;;;4.30;85.40;;;;;;5070718;28;20071;-81
2022/02/22 02:41:54;;;;;;;23.05;3.70;;;4.20;85.90;;;;;;5071072;28;20591;-81
2022/02/22 02:44:21;;;;;;;28.15;4.00;;;4.20;86.10;;;;;;5058388;28;20056;-81
2022/02/22 02:46:48;;;;;;;27.70;4.68;;;4.20;86.60;;;;;;5065508;28;20048;-82
2022/02/22 02:49:14;;;;;;;19.10;3.42;;;4.20;86.50;;;;;;5068107;28;20310;-81
2022/02/22 02:51:41;;;;;;;13.20;3.42;;;4.30;86.50;;;;;;5068847;28;20024;-83
2022/02/22 02:54:08;;;;;;;15.60;3.45;;;4.20;86.50;;;;;;5067182;28;20030;-84
2022/02/22 02:56:35;;;;;;;21.00;4.22;;;4.20;86.40;;;;;;5070192;28;20032;-84
2022/02/22 02:59:03;;;;;;;39.13;5.15;;;4.10;86.60;;;;;;5070998;28;20627;-84
2022/02/22 03:01:31;;;;;;;24.85;4.65;;;4.10;87.00;;;;;;5069484;28;20040;-84
2022/02/22 03:03:56;;;;;;;26.05;4.35;;;4.20;87.20;;;;;;5062728;28;20049;-84
2022/02/22 03:06:22;;;;;;;30.80;4.82;;;4.20;88.10;;;;;;5081305;28;20119;-84
2022/02/22 03:08:49;;;;;;;33.35;5.43;;;4.10;88.60;;;;;;5066342;28;20032;-84
2022/02/22 03:11:15;;;;;;;27.27;4.35;;;4.10;88.80;;;;;;5070018;28;20446;-84
2022/02/22 03:13:41;;;;;;;25.45;3.85;;;4.00;88.90;;;;;;5068409;28;20029;-84
2022/02/22 03:16:08;;;;;;;33.10;5.40;;;4.00;89.10;;;;;;5068629;28;20023;-84
2022/02/22 03:18:35;;;;;;;34.67;5.18;;;4.10;88.60;;;;;;5071089;28;20024;-84
2022/02/22 03:21:00;;;;;;;21.33;4.57;;;4.10;88.10;;;;;;5068743;28;20086;-84
2022/02/22 03:23:27;;;;;;;21.80;4.15;;;4.10;87.90;;;;;;5069591;28;20017;-84
2022/02/22 03:25:52;;;;;;;27.60;4.18;;;4.00;88.10;;;;;;5069231;28;20465;-84
2022/02/22 03:28:19;;;;;;;34.70;5.00;;;4.00;87.20;;;;;;5069031;28;20035;-84
2022/02/22 03:30:45;;;;;;;15.60;3.60;;;4.10;86.30;;;;;;5069182;28;20032;-84
2022/02/22 03:33:11;;;;;;;22.63;3.72;;;4.00;86.30;;;;;;5069625;28;20039;-84
2022/02/22 03:35:40;;;;;;;22.05;4.15;;;3.90;86.50;;;;;;5066921;28;20106;-84
2022/02/22 03:38:06;;;;;;;21.27;3.65;;;4.10;85.00;;;;;;5068813;28;20029;-85
2022/02/22 03:40:32;;;;;;;23.23;3.20;;;3.90;85.80;;;;;;5067124;28;20028;-84
2022/02/22 03:42:58;;;;;;;27.98;4.20;;;3.80;86.10;;;;;;5068829;28;20380;-84
2022/02/22 03:45:24;;;;;;;29.38;4.50;;;3.70;86.60;;;;;;5066911;28;20541;-84
2022/02/22 03:47:50;;;;;;;22.40;4.50;;;3.60;87.60;;;;;;5068769;28;20028;-84
2022/02/22 03:50:17;;;;;;;34.25;4.65;;;3.60;88.40;;;;;;5062581;28;20044;-84
2022/02/22 03:52:43;;;;;;;37.17;5.40;;;3.50;88.70;;;;;;5064068;28;20032;-84
2022/02/22 03:55:10;;;;;;;25.75;4.32;;;3.60;88.70;;;;;;5066988;28;20029;-84
2022/02/22 03:57:36;;;;;;;22.40;3.60;;;3.60;88.90;;;;;;5069358;28;20036;-84
2022/02/22 04:00:05;;;;;;;31.52;4.88;;;3.60;89.00;;;;;;5069662;28;20040;-84
2022/02/22 04:02:31;;;;;;;34.85;5.63;;;3.70;88.40;;;;;;5068947;28;20101;-84
2022/02/22 04:04:57;;;;;;;27.40;4.90;;;3.70;88.10;;;;;;5065896;28;20056;-84
2022/02/22 04:07:22;;;;;;;24.98;4.10;;;3.70;87.80;;;;;;5085602;28;20028;-84
2022/02/22 04:09:48;;;;;;;27.65;4.60;;;3.80;87.20;;;;;;5068154;28;20039;-85
2022/02/22 04:12:15;;;;;;;20.50;3.42;;;3.80;87.20;;;;;;5068940;28;20025;-84
2022/02/22 04:14:41;;;;;;;32.22;4.65;;;3.90;86.40;;;;;;5068678;28;20036;-84
2022/02/22 04:17:06;;;;;;;29.95;4.22;;;4.00;86.40;;;;;;5068486;28;20416;-84
2022/02/22 04:19:32;;;;;;;29.45;5.82;;;4.00;86.40;;;;;;5066354;28;20056;-84
2022/02/22 04:21:57;;;;;;;15.40;4.13;;;3.80;86.70;;;;;;5067568;28;20115;-84
2022/02/22 04:24:23;;;;;;;35.47;5.00;;;4.00;86.00;;;;;;5068219;28;20032;-84
2022/02/22 04:26:48;;;;;;;30.98;4.97;;;3.90;86.30;;;;;;5069109;28;20034;-85
2022/02/22 04:29:14;;;;;;;28.17;5.03;;;3.90;86.00;;;;;;5062683;28;20071;-84
2022/02/22 04:31:40;;;;;;;26.58;4.30;;;3.80;86.00;;;;;;5065359;28;20069;-84
2022/02/22 04:34:07;;;;;;;25.75;4.60;;;3.80;85.80;;;;;;5070663;28;20028;-84
2022/02/22 04:36:33;;;;;;;24.55;4.30;;;3.80;85.60;;;;;;5067842;28;20463;-84
2022/02/22 04:39:03;;;;;;;25.58;4.68;;;3.80;85.70;;;;;;5069120;28;20444;-84
2022/02/22 04:41:29;;;;;;;38.90;5.20;;;3.80;85.70;;;;;;5063964;28;20021;-84
2022/02/22 04:43:55;;;;;;;16.42;3.63;;;3.80;85.70;;;;;;5067786;28;20089;-84
2022/02/22 04:46:20;;;;;;;25.30;5.07;;;3.80;85.80;;;;;;5079279;28;20056;-84
2022/02/22 04:48:46;;;;;;;25.40;4.93;;;3.80;85.70;;;;;;5065811;28;20315;-84
2022/02/22 04:51:11;;;;;;;20.70;4.32;;;3.80;86.30;;;;;;5063121;28;20067;-84
2022/02/22 04:53:37;;;;;;;25.02;4.55;;;3.90;86.10;;;;;;5067791;28;20031;-84
2022/02/22 04:56:03;;;;;;;22.67;4.30;;;3.90;86.40;;;;;;5068088;28;20465;-84
2022/02/22 04:58:29;;;;;;;24.38;4.00;;;3.90;86.80;;;;;;5066963;28;20024;-84
2022/02/22 05:00:54;;;;;;;20.90;3.88;;;3.90;87.10;;;;;;5067853;28;20443;-84
2022/02/22 05:03:21;;;;;;;26.05;4.20;;;4.10;85.50;;;;;;5058521;28;20031;-84
2022/02/22 05:05:46;;;;;;;19.08;4.05;;;4.10;85.70;;;;;;5066836;28;20040;-84
2022/02/22 05:08:12;;;;;;;21.92;4.50;;;4.10;85.70;;;;;;5065020;28;20024;-84
2022/02/22 05:10:37;;;;;;;26.13;4.03;;;4.20;85.60;;;;;;5065827;28;20124;-83
2022/02/22 05:13:03;;;;;;;23.15;4.82;;;4.20;85.50;;;;;;5068453;28;20017;-84
2022/02/22 05:15:32;;;;;;;21.92;4.20;;;4.10;86.00;;;;;;5064528;28;20360;-84
2022/02/22 05:17:58;;;;;;;27.42;4.15;;;4.10;86.20;;;;;;5069241;28;20119;-84
2022/02/22 05:20:24;;;;;;;19.58;4.20;;;4.10;86.40;;;;;;5067590;28;20591;-84
2022/02/22 05:22:49;;;;;;;25.02;3.90;;;4.10;86.40;;;;;;5068892;28;20481;-84
2022/02/22 05:25:15;;;;;;;25.80;4.70;;;4.10;86.50;;;;;;5065864;28;20065;-85
2022/02/22 05:27:41;;;;;;;30.00;4.10;;;4.00;86.60;;;;;;5070487;28;20045;-85
2022/02/22 05:30:09;;;;;;;23.98;4.78;;;3.90;87.20;;;;;;5068779;28;20028;-85
2022/02/22 05:32:34;;;;;;;21.50;4.85;;;4.00;86.80;;;;;;5069981;28;20036;-84
2022/02/22 05:35:01;;;;;;;21.40;4.07;;;4.00;86.20;;;;;;5066454;28;20393;-84
2022/02/22 05:37:28;;;;;;;24.80;5.15;;;4.00;86.20;;;;;;5067544;28;20399;-84
2022/02/22 05:39:55;;;;;;;16.88;3.65;;;4.00;85.90;;;;;;5066631;28;20039;-84
2022/02/22 05:42:24;;;;;;;24.92;3.92;;;3.90;86.00;;;;;;5065739;28;20076;-84
2022/02/22 05:44:49;;;;;;;31.30;4.55;;;4.00;85.30;;;;;;5066106;28;20094;-84
2022/02/22 05:47:15;;;;;;;20.77;4.20;;;3.90;85.30;;;;;;5066203;28;20020;-84
2022/02/22 05:49:41;;;;;;;20.02;3.30;;;3.90;84.50;;;;;;5065224;28;20037;-84
2022/02/22 05:52:07;;;;;;;27.73;4.25;;;3.90;84.50;;;;;;5067691;28;20032;-83
2022/02/22 05:54:32;;;;;;;27.25;3.97;;;3.90;84.30;;;;;;5075544;28;20032;-84
2022/02/22 05:56:58;;;;;;;28.42;4.30;;;3.80;84.20;;;;;;5078276;28;20388;-84
2022/02/22 05:59:23;;;;;;;20.63;4.07;;;3.70;84.40;;;;;;5084110;28;20024;-84
2022/02/22 06:01:49;;;;;;;12.07;3.33;;;3.70;84.30;;;;;;5067435;28;20112;-84
2022/02/22 06:04:16;;;;;;;23.52;3.60;;;3.80;83.40;;;;;;5062006;28;20099;-84
2022/02/22 06:06:42;;;;;;;26.67;4.45;;;3.70;83.60;;;;;;5071175;28;20060;-84
2022/02/22 06:09:09;;;;;;;21.58;4.20;;;3.70;82.90;;;;;;5073918;28;20071;-84
2022/02/22 06:11:35;;;;;;;27.75;3.72;;;3.70;82.50;;;;;;5075481;28;20048;-84
2022/02/22 06:14:01;;;;;;;13.90;2.60;;;3.70;82.70;;;;;;5070603;28;20051;-84
2022/02/22 06:16:27;;;;;;;20.33;4.15;;;3.90;81.60;;;;;;5070705;28;20024;-84
2022/02/22 06:18:53;;;;;;;16.90;2.67;;;3.80;81.70;;;;;;5072228;28;20031;-84
2022/02/22 06:21:18;;;;;;;20.15;3.88;;;3.80;81.70;;;;;;5069140;28;20393;-84
2022/02/22 06:23:44;;;;;;;21.67;4.00;;;3.90;81.10;;;;;;5081646;28;20044;-84
2022/02/22 06:26:09;;;;;;;19.58;3.28;;;4.00;81.10;;;;;;5073358;28;20036;-85
2022/02/22 06:28:35;;;;;;;14.60;3.00;;;4.10;80.00;;;;;;5072981;28;20044;-84
2022/02/22 06:31:00;;;;;;;13.25;2.80;;;4.10;79.90;;;;;;5071388;28;20093;-84
2022/02/22 06:33:26;;;;;;;27.60;3.58;;;4.10;80.40;;;;;;5072215;28;20460;-84
2022/02/22 06:35:52;;;;;;;19.67;3.63;;;4.10;80.80;;;;;;5070683;28;20036;-84
2022/02/22 06:38:18;;;;;;;21.27;3.28;;;4.10;81.00;;;;;;5072845;28;20013;-84
2022/02/22 06:40:44;;;;;;;14.82;2.78;;;4.10;81.00;;;;;;5070893;28;20119;-83
2022/02/22 06:43:10;;;;;;;18.77;3.75;;;4.10;80.90;;;;;;5065444;28;20029;-83
2022/02/22 06:45:35;;;;;;;16.63;2.83;;;4.10;80.90;;;;;;5069686;28;20127;-84
2022/02/22 06:48:01;;;;;;;17.27;2.97;;;4.10;81.40;;;;;;5087488;28;20060;-84
2022/02/22 06:50:27;;;;;;;23.73;3.30;;;4.20;80.90;;;;;;5070528;28;20105;-84
2022/02/22 06:52:52;;;;;;;14.85;2.53;;;4.30;80.00;;;;;;5071303;28;20021;-84
2022/02/22 06:55:18;;;;;;;24.88;3.20;;;4.40;79.40;;;;;;5074018;28;20025;-84
2022/02/22 06:58:07;;;;;;;20.17;3.40;;;4.40;79.80;;;;;;5085516;28;20059;-84
2022/02/22 07:00:37;;;;;;;28.48;3.70;;;4.40;79.60;;;;;;5066722;28;20030;-84
2022/02/22 07:03:05;;;;;;;20.95;3.08;;;4.40;79.50;;;;;;5073543;28;20068;-83
2022/02/22 07:05:31;;;;;;;26.33;3.05;;;4.40;79.90;;;;;;5059919;28;20123;-84
2022/02/22 07:07:57;;;;;;;14.52;2.85;;;4.30;80.40;;;;;;5062792;28;20036;-84
2022/02/22 07:10:25;;;;;;;20.60;3.33;;;4.40;79.50;;;;;;5067233;28;20064;-84
2022/02/22 07:12:50;;;;;;;18.60;2.95;;;4.40;79.60;;;;;;5062529;28;20033;-84
2022/02/22 07:15:16;;;;;;;17.95;3.38;;;4.30;79.90;;;;;;5067531;28;20064;-84
2022/02/22 07:18:11;;;;;;;20.88;3.25;;;4.30;80.30;;;;;;5067801;28;20032;-84
2022/02/22 07:20:37;;;;;;;23.75;3.38;;;4.30;80.60;;;;;;5059692;28;20071;-84
2022/02/22 07:23:03;;;;;;;23.92;3.17;;;4.30;81.00;;;;;;5060385;28;20060;-84
2022/02/22 07:25:29;;;;;;;17.67;2.92;;;4.40;80.00;;;;;;5070814;28;20031;-84
2022/02/22 07:27:57;;;;;;;17.77;3.35;;;4.40;80.60;;;;;;5067682;28;20032;-84
2022/02/22 07:30:23;;;;;;;17.50;3.50;;;4.30;80.70;;;;;;5080277;28;20024;-84
2022/02/22 07:32:52;;;;;;;23.27;3.47;;;4.30;81.40;;;;;;5072457;28;20028;-84
2022/02/22 07:35:18;;;;;;;22.90;3.85;;;4.10;82.50;;;;;;5058479;28;20017;-85
2022/02/22 07:37:45;;;;;;;21.08;3.28;;;4.00;83.30;;;;;;5072763;28;20021;-85
2022/02/22 07:40:13;;;;;;;21.90;4.72;;;3.90;84.20;;;;;;5071393;28;20651;-85
2022/02/22 07:42:39;;;;;;;23.52;3.15;;;3.70;84.90;;;;;;5070634;28;20123;-85
2022/02/22 07:45:06;;;;;;;19.58;3.25;;;3.70;85.70;;;;;;5070796;28;20442;-85
2022/02/22 07:47:32;;;;;;;25.42;4.40;;;3.60;86.30;;;;;;5068766;28;20051;-84
2022/02/22 07:49:58;;;;;;;27.25;3.78;;;3.60;86.60;;;;;;5070176;28;20056;-84
2022/02/22 07:52:25;;;;;;;31.00;3.97;;;3.60;87.00;;;;;;5071436;28;20016;-84
2022/02/22 07:54:51;;;;;;;31.27;4.28;;;3.60;87.00;;;;;;5068368;28;20024;-84
2022/02/22 07:57:16;;;;;;;26.17;4.25;;;3.60;87.30;;;;;;5071450;28;20032;-84
2022/02/22 07:59:43;;;;;;;23.00;4.40;;;3.60;87.40;;;;;;5065896;28;20071;-85
2022/02/22 08:02:08;;;;;;;21.38;3.78;;;3.60;87.40;;;;;;5069249;28;20044;-85
2022/02/22 08:04:34;;;;;;;24.73;3.78;;;3.70;87.50;;;;;;5064799;28;20131;-85
2022/02/22 08:06:59;;;;;;;20.40;4.10;;;3.70;87.20;;;;;;5069490;28;20407;-84
2022/02/22 08:09:25;;;;;;;18.98;3.78;;;3.70;87.40;;;;;;5080813;28;20059;-84
2022/02/22 08:11:51;;;;;;;26.70;5.00;;;3.80;87.20;;;;;;5069847;28;20116;-84
2022/02/22 08:14:17;;;;;;;25.95;3.83;;;3.90;87.30;;;;;;5078664;28;20533;-84
2022/02/22 08:16:43;;;;;;;20.00;3.53;;;4.10;87.20;;;;;;5070182;28;20043;-85
2022/02/22 08:19:09;;;;;;;23.88;4.10;;;4.20;86.70;;;;;;5054064;28;20028;-85
2022/02/22 08:21:35;;;;;;;28.67;5.07;;;4.20;86.90;;;;;;5063087;28;20017;-84
2022/02/22 08:24:01;;;;;;;27.52;4.82;;;4.20;86.70;;;;;;5049999;28;20044;-85
2022/02/22 08:26:27;;;;;;;26.95;4.18;;;4.20;86.80;;;;;;5094802;28;20033;-84
2022/02/22 08:28:52;;;;;;;27.35;5.75;;;4.40;87.00;;;;;;5070651;28;20036;-85
2022/02/22 08:31:18;;;;;;;16.42;3.08;;;4.40;86.60;;;;;;5068553;28;20023;-85
2022/02/22 08:33:44;;;;;;;31.55;4.03;;;4.40;86.30;;;;;;5071550;28;20082;-84
2022/02/22 08:36:10;;;;;;;21.27;3.33;;;4.60;86.20;;;;;;5060850;28;20467;-85
2022/02/22 08:38:37;;;;;;;17.35;3.95;;;4.60;86.10;;;;;;5069569;28;20016;-85
2022/02/22 08:41:02;;;;;;;27.52;4.22;;;4.70;85.80;;;;;;5070402;28;20032;-84
2022/02/22 08:43:28;;;;;;;30.92;4.95;;;4.70;85.60;;;;;;5072893;28;20090;-84
2022/02/22 08:45:53;;;;;;;23.27;4.28;;;4.80;85.70;;;;;;5062934;28;20036;-85
2022/02/22 08:48:19;;;;;;;21.08;4.13;;;4.90;85.10;;;;;;5066107;28;20090;-85
2022/02/22 08:50:44;;;;;;;28.90;4.32;;;5.10;84.70;;;;;;5065952;28;20104;-85
2022/02/22 08:53:12;;;;;;;19.40;3.83;;;5.10;84.20;;;;;;5066437;28;20464;-85
2022/02/22 08:55:38;;;;;;;25.02;4.25;;;5.10;84.40;;;;;;5084322;28;20037;-85
2022/02/22 08:58:04;;;;;;;19.25;3.55;;;5.20;83.60;;;;;;5061535;28;20067;-85
2022/02/22 09:00:33;;;;;;;26.80;4.13;;;5.20;83.30;;;;;;5069812;28;20028;-85
2022/02/22 09:03:00;;;;;;;20.88;3.78;;;5.20;83.50;;;;;;5059395;28;20509;-84
2022/02/22 09:05:27;;;;;;;21.45;4.20;;;5.30;83.50;;;;;;5067456;28;20048;-85
2022/02/22 09:07:53;;;;;;;27.27;4.57;;;5.40;83.20;;;;;;5059055;28;20031;-85
2022/02/22 09:10:20;;;;;;;25.77;4.63;;;5.60;82.90;;;;;;5069434;28;20186;-85
2022/02/22 09:12:46;;;;;;;30.70;4.30;;;5.70;82.80;;;;;;5071308;28;20541;-85
2022/02/22 09:15:12;;;;;;;24.52;3.95;;;5.70;82.20;;;;;;5070187;28;20099;-85
2022/02/22 09:17:38;;;;;;;23.30;4.88;;;5.60;82.00;;;;;;5069535;28;20159;-85
2022/02/22 09:20:06;;;;;;;18.60;4.00;;;5.60;82.40;;;;;;5065646;28;20032;-85
2022/02/22 09:22:31;;;;;;;15.88;3.22;;;5.60;82.80;;;;;;5065713;28;20028;-84
2022/02/22 09:24:57;;;;;;;16.67;3.85;;;5.70;82.40;;;;;;5059880;28;20036;-84
2022/02/22 09:27:22;;;;;;;15.98;3.38;;;5.60;82.70;;;;;;5065125;28;20029;-83
2022/02/22 09:29:48;;;;;;;28.27;4.70;;;5.70;82.90;;;;;;5070058;28;20036;-82
2022/02/22 09:32:13;;;;;;;29.85;4.95;;;5.70;82.80;;;;;;5069692;28;20028;-82
2022/02/22 09:34:40;;;;;;;27.23;4.50;;;5.60;83.50;;;;;;5067579;28;20443;-82
2022/02/22 09:37:06;;;;;;;22.67;3.55;;;5.50;83.00;;;;;;5068608;28;20107;-82
2022/02/22 09:39:34;;;;;;;27.50;4.13;;;5.60;83.10;;;;;;5070038;28;20035;-81
2022/02/22 09:42:00;;;;;;;21.20;3.65;;;5.70;82.50;;;;;;5071679;28;20021;-81
2022/02/22 09:44:25;;;;;;;26.80;5.05;;;5.80;82.70;;;;;;5071956;28;20029;-81
2022/02/22 09:46:52;;;;;;;19.55;4.13;;;6.00;82.50;;;;;;5071297;28;20032;-82
2022/02/22 09:49:17;;;;;;;21.40;3.85;;;6.10;82.10;;;;;;5069576;28;20032;-82
2022/02/22 09:51:43;;;;;;;16.60;3.50;;;6.00;81.70;;;;;;5058654;28;20412;-82
2022/02/22 09:54:08;;;;;;;20.83;3.58;;;6.10;82.50;;;;;;5069172;28;20032;-82
2022/02/22 09:56:44;;;;;;;14.18;2.67;;;6.30;82.40;;;;;;5071436;28;20380;-82
2022/02/22 09:59:11;;;;;;;11.57;3.00;;;6.40;81.70;;;;;;5070006;28;20032;-82
2022/02/22 10:01:49;;;;;;;24.15;3.80;;;6.20;80.60;;;;;;5088079;28;20032;-82
2022/02/22 10:04:15;;;;;;;18.77;4.07;;;6.20;81.60;;;;;;5069841;28;20650;-81
2022/02/22 10:06:40;;;;;;;21.15;3.42;;;6.30;81.50;;;;;;5072458;28;20119;-83
2022/02/22 10:09:09;;;;;;;17.75;3.50;;;6.40;81.50;;;;;;5080340;28;20025;-84
2022/02/22 10:11:51;;;;;;;21.85;3.55;;;6.40;79.90;;;;;;5065850;28;20025;-84
2022/02/22 10:14:23;;;;;;;15.18;3.58;;;6.50;79.50;;;;;;5069370;28;20384;-83
2022/02/22 10:16:50;;;;;;;20.92;4.25;;;6.50;78.80;;;;;;5068286;28;20033;-83
2022/02/22 10:19:17;;;;;;;23.55;4.22;;;6.50;79.30;;;;;;5067700;28;20056;-84
2022/02/22 10:21:50;;;;;;;19.77;3.75;;;6.50;79.50;;;;;;5072193;28;20021;-84
2022/02/22 10:24:18;;;;;;;19.42;3.92;;;6.60;79.80;;;;;;5090918;28;20523;-83
2022/02/22 10:26:44;;;;;;;19.67;3.53;;;6.60;79.80;;;;;;5070304;28;20028;-84
2022/02/22 10:29:18;;;;;;;19.42;3.40;;;6.60;79.30;;;;;;5069123;28;20090;-82
2022/02/22 10:31:45;;;;;;;20.73;4.05;;;6.60;79.40;;;;;;5057157;28;20024;-83
2022/02/22 10:34:12;;;;;;;22.52;3.63;;;6.70;79.90;;;;;;5068992;28;20020;-83
2022/02/22 10:36:40;;;;;;;25.15;4.35;;;6.80;79.70;;;;;;5074213;28;20036;-83
2022/02/22 10:39:11;;;;;;;16.55;3.15;;;6.80;78.90;;;;;;5072141;28;20048;-83
2022/02/22 10:41:42;;;;;;;18.70;4.00;;;6.90;77.80;;;;;;5072211;28;20032;-83
2022/02/22 10:44:10;;;;;;;17.90;3.42;;;7.00;78.30;;;;;;5071953;28;20028;-84
2022/02/22 10:46:43;;;;;;;16.60;3.28;;;6.90;77.70;;;;;;5086352;28;20025;-85
2022/02/22 10:49:13;;;;;;;12.48;2.80;;;6.90;77.50;;;;;;5070535;28;20029;-84
2022/02/22 10:51:41;;;;;;;19.38;3.50;;;6.90;77.30;;;;;;5070584;28;20400;-84
2022/02/22 10:54:08;;;;;;;21.75;3.80;;;7.00;76.50;;;;;;5072133;28;20024;-84
2022/02/22 10:56:35;;;;;;;25.50;3.67;;;7.10;76.20;;;;;;5067340;28;20016;-84
2022/02/22 10:59:02;;;;;;;14.32;3.00;;;7.30;76.60;;;;;;5079037;28;20373;-84
2022/02/22 11:01:28;;;;;;;23.35;3.45;;;7.30;74.80;;;;;;5070748;28;20021;-84
2022/02/22 11:03:54;;;;;;;18.85;3.67;;;7.50;74.60;;;;;;5071447;28;20040;-84
2022/02/22 11:06:20;;;;;;;20.48;3.63;;;7.40;74.40;;;;;;5069883;28;20365;-84
2022/02/22 11:08:51;;;;;;;18.75;3.28;;;7.30;74.50;;;;;;5065661;28;20108;-84
2022/02/22 11:11:32;;;;;;;24.63;4.07;;;7.10;74.30;;;;;;5068210;28;20029;-84
2022/02/22 11:13:59;;;;;;;20.63;3.45;;;7.20;74.70;;;;;;5057459;28;20475;-84
2022/02/22 11:16:25;;;;;;;16.25;3.33;;;7.10;76.90;;;;;;5066102;28;20074;-84
2022/02/22 11:18:54;;;;;;;17.50;3.35;;;7.30;76.30;;;;;;5068601;28;20028;-84
2022/02/22 11:21:24;;;;;;;22.17;3.40;;;7.40;76.60;;;;;;5068399;28;20033;-84
2022/02/22 11:24:03;;;;;;;18.03;2.70;;;7.20;76.80;;;;;;5070657;28;20060;-84
2022/02/22 11:26:45;;;;;;;20.35;3.15;;;7.00;74.40;;;;;;5064041;28;20321;-84
2022/02/22 11:29:11;;;;;;;15.70;3.42;;;7.10;75.20;;;;;;5052619;28;20029;-84
2022/02/22 11:31:37;;;;;;;19.10;3.28;;;7.00;75.60;;;;;;5083199;28;20024;-84
2022/02/22 11:34:04;;;;;;;16.90;3.60;;;7.00;76.50;;;;;;5072110;28;20024;-84
2022/02/22 11:36:36;;;;;;;13.45;2.72;;;7.00;76.90;;;;;;5070401;28;20450;-84
2022/02/22 11:39:04;;;;;;;15.65;3.95;;;6.90;76.90;;;;;;5063157;28;20028;-84
2022/02/22 11:41:36;;;;;;;14.52;3.00;;;7.10;77.00;;;;;;5072728;28;20191;-85
2022/02/22 11:44:05;;;;;;;17.80;3.80;;;7.10;75.90;;;;;;5073608;28;20095;-84
2022/02/22 11:46:35;;;;;;;15.75;3.25;;;7.00;75.50;;;;;;5072864;28;20024;-85
2022/02/22 11:49:04;;;;;;;17.27;2.90;;;7.10;76.60;;;;;;5068727;28;20056;-85
2022/02/22 11:51:41;;;;;;;12.00;3.40;;;7.10;76.00;;;;;;5069638;28;20033;-84
2022/02/22 11:54:13;;;;;;;17.58;2.92;;;7.10;76.80;;;;;;5070045;28;20032;-84
2022/02/22 11:56:39;;;;;;;17.67;2.63;;;7.10;75.90;;;;;;5059258;28;20066;-84
2022/02/22 11:59:20;;;;;;;20.27;3.75;;;7.10;75.80;;;;;;5070866;28;20024;-84
2022/02/22 12:01:47;;;;;;;25.38;3.08;;;7.10;76.50;;;;;;5069974;28;20438;-84
2022/02/22 12:04:21;;;;;;;17.67;3.30;;;7.10;76.20;;;;;;5067901;28;20040;-84
2022/02/22 12:06:53;;;;;;;16.30;3.38;;;7.20;77.60;;;;;;5072210;28;20025;-84
2022/02/22 12:09:19;;;;;;;12.23;2.80;;;7.10;77.40;;;;;;5051289;28;20033;-84
2022/02/22 12:11:44;;;;;;;18.38;2.90;;;7.10;76.70;;;;;;5062391;28;20396;-84
2022/02/22 12:14:11;;;;;;;11.27;2.85;;;7.10;77.20;;;;;;5068704;28;20033;-84
2022/02/22 12:16:42;;;;;;;21.70;3.75;;;6.90;77.10;;;;;;5065886;28;20492;-84
2022/02/22 12:19:11;;;;;;;13.02;2.90;;;7.00;77.80;;;;;;5063211;28;20077;-84
2022/02/22 12:21:37;;;;;;;13.77;3.20;;;7.00;77.40;;;;;;5075831;28;20029;-84
2022/02/22 12:24:04;;;;;;;17.00;3.13;;;7.00;76.60;;;;;;5066451;28;20038;-84
2022/02/22 12:26:30;;;;;;;17.55;3.67;;;7.00;78.10;;;;;;5056287;28;20032;-84
2022/02/22 12:28:58;;;;;;;19.40;3.42;;;7.10;78.60;;;;;;5071707;28;20021;-84
2022/02/22 12:31:31;;;;;;;13.77;2.85;;;7.10;78.20;;;;;;5070527;28;20412;-84
2022/02/22 12:34:01;;;;;;;17.90;2.88;;;7.10;78.30;;;;;;5068843;28;20021;-84
2022/02/22 12:36:27;;;;;;;11.63;3.03;;;7.20;78.90;;;;;;5064100;28;20423;-84
2022/02/22 12:38:57;;;;;;;14.13;2.60;;;7.10;77.60;;;;;;5069224;28;20052;-84
2022/02/22 12:41:22;;;;;;;14.00;3.28;;;7.00;77.60;;;;;;5069699;28;20028;-84
2022/02/22 12:43:50;;;;;;;13.48;2.53;;;7.00;78.30;;;;;;5066820;28;20047;-84
2022/02/22 12:46:18;;;;;;;12.52;2.70;;;7.00;78.80;;;;;;5070168;28;20056;-84